sensor_id;sensor_type;location;lat;lon;timestamp;temperature;humidity
54409;DHT22;40315;48.620;9.828;2023-10-31T00:00:10;11.20;99.90
54409;DHT22;40315;48.620;9.828;2023-10-31T00:05:05;11.10;99.90
54409;DHT22;40315;48.620;9.828;2023-10-31T00:07:32;11.10;99.90
54409;DHT22;40315;48.620;9.828;2023-10-31T00:09:59;11.00;99.90
54409;DHT22;40315;48.620;9.828;2023-10-31T00:12:26;11.10;99.90
54409;DHT22;40315;48.620;9.828;2023-10-31T00:14:53;11.10;99.90
54409;DHT22;40315;48.620;9.828;2023-10-31T00:22:18;11.10;99.90
54409;DHT22;40315;48.620;9.828;2023-10-31T00:29:41;11.00;99.90
54409;DHT22;40315;48.620;9.828;2023-10-31T00:32:08;11.30;99.90
54409;DHT22;40315;48.620;9.828;2023-10-31T00:37:03;11.10;99.90
54409;DHT22;40315;48.620;9.828;2023-10-31T00:39:30;11.10;99.90
54409;DHT22;40315;48.620;9.828;2023-10-31T00:42:01;11.30;99.90
54409;DHT22;40315;48.620;9.828;2023-10-31T00:44:28;11.10;99.90
54409;DHT22;40315;48.620;9.828;2023-10-31T00:46:55;10.90;99.90
54409;DHT22;40315;48.620;9.828;2023-10-31T00:49:23;10.90;99.90
54409;DHT22;40315;48.620;9.828;2023-10-31T00:54:19;11.00;99.90
54409;DHT22;40315;48.620;9.828;2023-10-31T00:56:46;11.00;99.90
54409;DHT22;40315;48.620;9.828;2023-10-31T00:59:12;10.90;99.90
54409;DHT22;40315;48.620;9.828;2023-10-31T01:01:39;11.20;99.90
54409;DHT22;40315;48.620;9.828;2023-10-31T01:04:07;11.00;99.90
54409;DHT22;40315;48.620;9.828;2023-10-31T01:06:34;11.20;99.90
54409;DHT22;40315;48.620;9.828;2023-10-31T01:09:07;11.10;99.90
54409;DHT22;40315;48.620;9.828;2023-10-31T01:11:34;11.10;99.90
54409;DHT22;40315;48.620;9.828;2023-10-31T01:14:01;11.00;99.90
54409;DHT22;40315;48.620;9.828;2023-10-31T01:16:28;11.00;99.90
54409;DHT22;40315;48.620;9.828;2023-10-31T01:21:22;10.90;99.90
54409;DHT22;40315;48.620;9.828;2023-10-31T01:23:49;10.80;99.90
54409;DHT22;40315;48.620;9.828;2023-10-31T01:28:46;10.60;99.90
54409;DHT22;40315;48.620;9.828;2023-10-31T01:31:16;10.60;99.90
54409;DHT22;40315;48.620;9.828;2023-10-31T01:36:10;10.50;99.90
54409;DHT22;40315;48.620;9.828;2023-10-31T01:38:38;10.50;99.90
54409;DHT22;40315;48.620;9.828;2023-10-31T01:41:07;10.40;99.90
54409;DHT22;40315;48.620;9.828;2023-10-31T01:43:36;10.30;99.90
54409;DHT22;40315;48.620;9.828;2023-10-31T01:46:04;10.30;99.90
54409;DHT22;40315;48.620;9.828;2023-10-31T01:48:33;10.30;99.90
54409;DHT22;40315;48.620;9.828;2023-10-31T02:15:03;10.30;99.90
54409;DHT22;40315;48.620;9.828;2023-10-31T02:17:33;10.20;99.90
54409;DHT22;40315;48.620;9.828;2023-10-31T02:20:00;10.20;99.90
54409;DHT22;40315;48.620;9.828;2023-10-31T02:24:55;10.30;99.90
54409;DHT22;40315;48.620;9.828;2023-10-31T02:29:49;10.30;99.90
54409;DHT22;40315;48.620;9.828;2023-10-31T02:32:18;10.10;99.90
54409;DHT22;40315;48.620;9.828;2023-10-31T02:34:45;10.10;99.90
54409;DHT22;40315;48.620;9.828;2023-10-31T02:37:12;10.10;99.90
54409;DHT22;40315;48.620;9.828;2023-10-31T02:39:42;10.00;99.90
54409;DHT22;40315;48.620;9.828;2023-10-31T02:42:09;10.00;99.90
54409;DHT22;40315;48.620;9.828;2023-10-31T02:44:36;10.00;99.90
54409;DHT22;40315;48.620;9.828;2023-10-31T02:47:05;10.00;99.90
54409;DHT22;40315;48.620;9.828;2023-10-31T02:49:32;10.10;99.90
54409;DHT22;40315;48.620;9.828;2023-10-31T02:52:01;10.10;99.90
54409;DHT22;40315;48.620;9.828;2023-10-31T02:54:28;10.10;99.90
54409;DHT22;40315;48.620;9.828;2023-10-31T02:59:23;10.10;99.90
54409;DHT22;40315;48.620;9.828;2023-10-31T03:04:18;10.00;99.90
54409;DHT22;40315;48.620;9.828;2023-10-31T03:09:12;10.00;99.90
54409;DHT22;40315;48.620;9.828;2023-10-31T03:16:37;10.00;99.90
54409;DHT22;40315;48.620;9.828;2023-10-31T03:21:35;10.00;99.90
54409;DHT22;40315;48.620;9.828;2023-10-31T03:24:02;10.00;99.90
54409;DHT22;40315;48.620;9.828;2023-10-31T03:26:29;10.00;99.90
54409;DHT22;40315;48.620;9.828;2023-10-31T03:33:52;9.90;99.90
54409;DHT22;40315;48.620;9.828;2023-10-31T03:36:19;10.00;99.90
54409;DHT22;40315;48.620;9.828;2023-10-31T03:38:46;10.00;99.90
54409;DHT22;40315;48.620;9.828;2023-10-31T03:41:13;9.90;99.90
54409;DHT22;40315;48.620;9.828;2023-10-31T03:43:40;9.90;99.90
54409;DHT22;40315;48.620;9.828;2023-10-31T03:46:07;9.90;99.90
54409;DHT22;40315;48.620;9.828;2023-10-31T03:48:36;11.00;99.90
54409;DHT22;40315;48.620;9.828;2023-10-31T03:51:03;9.90;99.90
54409;DHT22;40315;48.620;9.828;2023-10-31T03:53:30;9.90;99.90
54409;DHT22;40315;48.620;9.828;2023-10-31T03:55:58;9.80;99.90
54409;DHT22;40315;48.620;9.828;2023-10-31T03:58:29;9.80;99.90
54409;DHT22;40315;48.620;9.828;2023-10-31T04:03:27;9.70;99.90
54409;DHT22;40315;48.620;9.828;2023-10-31T04:05:55;9.70;99.90
54409;DHT22;40315;48.620;9.828;2023-10-31T04:08:22;10.50;99.90
54409;DHT22;40315;48.620;9.828;2023-10-31T04:10:49;11.10;99.90
54409;DHT22;40315;48.620;9.828;2023-10-31T04:13:19;8.20;99.90
54409;DHT22;40315;48.620;9.828;2023-10-31T04:18:13;9.80;99.90
54409;DHT22;40315;48.620;9.828;2023-10-31T04:20:40;9.80;99.90
54409;DHT22;40315;48.620;9.828;2023-10-31T04:25:37;9.70;99.90
54409;DHT22;40315;48.620;9.828;2023-10-31T04:28:04;9.70;99.90
54409;DHT22;40315;48.620;9.828;2023-10-31T04:30:31;9.70;99.90
54409;DHT22;40315;48.620;9.828;2023-10-31T04:32:58;9.70;99.90
54409;DHT22;40315;48.620;9.828;2023-10-31T04:37:52;9.60;99.90
54409;DHT22;40315;48.620;9.828;2023-10-31T04:42:50;9.70;99.90
54409;DHT22;40315;48.620;9.828;2023-10-31T04:45:17;9.60;99.90
54409;DHT22;40315;48.620;9.828;2023-10-31T04:47:44;9.60;99.90
54409;DHT22;40315;48.620;9.828;2023-10-31T04:50:11;9.60;99.90
54409;DHT22;40315;48.620;9.828;2023-10-31T04:52:38;9.50;99.90
54409;DHT22;40315;48.620;9.828;2023-10-31T04:55:05;9.50;99.90
54409;DHT22;40315;48.620;9.828;2023-10-31T04:57:33;9.50;99.90
54409;DHT22;40315;48.620;9.828;2023-10-31T05:00:00;9.50;99.90
54409;DHT22;40315;48.620;9.828;2023-10-31T05:02:29;9.50;99.90
54409;DHT22;40315;48.620;9.828;2023-10-31T05:04:58;9.50;99.90
54409;DHT22;40315;48.620;9.828;2023-10-31T05:07:27;9.40;99.90
54409;DHT22;40315;48.620;9.828;2023-10-31T05:09:55;9.40;99.90
54409;DHT22;40315;48.620;9.828;2023-10-31T05:12:22;9.40;99.90
54409;DHT22;40315;48.620;9.828;2023-10-31T05:22:17;9.40;99.90
54409;DHT22;40315;48.620;9.828;2023-10-31T05:24:44;9.50;99.90
54409;DHT22;40315;48.620;9.828;2023-10-31T05:29:39;9.40;99.90
54409;DHT22;40315;48.620;9.828;2023-10-31T05:34:37;9.40;99.90
54409;DHT22;40315;48.620;9.828;2023-10-31T05:37:04;9.40;99.90
54409;DHT22;40315;48.620;9.828;2023-10-31T05:39:31;9.40;99.90
54409;DHT22;40315;48.620;9.828;2023-10-31T05:44:25;9.50;99.90
54409;DHT22;40315;48.620;9.828;2023-10-31T05:46:52;9.50;99.90
54409;DHT22;40315;48.620;9.828;2023-10-31T05:49:21;9.40;99.90
54409;DHT22;40315;48.620;9.828;2023-10-31T05:54:17;9.50;99.90
54409;DHT22;40315;48.620;9.828;2023-10-31T05:56:44;9.50;99.90
54409;DHT22;40315;48.620;9.828;2023-10-31T05:59:11;9.50;99.90
54409;DHT22;40315;48.620;9.828;2023-10-31T06:01:40;9.40;99.90
54409;DHT22;40315;48.620;9.828;2023-10-31T06:09:05;8.60;99.90
54409;DHT22;40315;48.620;9.828;2023-10-31T06:11:35;9.50;99.90
54409;DHT22;40315;48.620;9.828;2023-10-31T06:14:02;9.50;99.90
54409;DHT22;40315;48.620;9.828;2023-10-31T06:28:51;9.40;99.90
54409;DHT22;40315;48.620;9.828;2023-10-31T06:33:45;9.40;99.90
54409;DHT22;40315;48.620;9.828;2023-10-31T06:36:12;9.40;99.90
54409;DHT22;40315;48.620;9.828;2023-10-31T06:46:06;9.40;99.90
54409;DHT22;40315;48.620;9.828;2023-10-31T06:48:32;9.40;99.90
54409;DHT22;40315;48.620;9.828;2023-10-31T06:53:27;9.40;99.90
54409;DHT22;40315;48.620;9.828;2023-10-31T07:00:49;9.50;99.90
54409;DHT22;40315;48.620;9.828;2023-10-31T07:03:17;9.50;99.90
54409;DHT22;40315;48.620;9.828;2023-10-31T07:05:44;9.40;99.90
54409;DHT22;40315;48.620;9.828;2023-10-31T07:13:05;9.30;99.90
54409;DHT22;40315;48.620;9.828;2023-10-31T07:15:33;9.40;99.90
54409;DHT22;40315;48.620;9.828;2023-10-31T07:18:04;9.50;99.90
54409;DHT22;40315;48.620;9.828;2023-10-31T07:20:33;9.50;99.90
54409;DHT22;40315;48.620;9.828;2023-10-31T07:23:03;9.40;99.90
54409;DHT22;40315;48.620;9.828;2023-10-31T07:28:00;9.50;99.90
54409;DHT22;40315;48.620;9.828;2023-10-31T07:30:26;9.50;99.90
54409;DHT22;40315;48.620;9.828;2023-10-31T07:35:27;9.60;99.90
54409;DHT22;40315;48.620;9.828;2023-10-31T07:37:54;9.60;99.90
54409;DHT22;40315;48.620;9.828;2023-10-31T07:40:21;9.60;99.90
54409;DHT22;40315;48.620;9.828;2023-10-31T07:42:50;9.60;99.90
54409;DHT22;40315;48.620;9.828;2023-10-31T07:45:17;9.60;99.90
54409;DHT22;40315;48.620;9.828;2023-10-31T07:47:44;9.60;99.90
54409;DHT22;40315;48.620;9.828;2023-10-31T07:50:12;9.70;99.90
54409;DHT22;40315;48.620;9.828;2023-10-31T07:55:09;9.70;99.90
54409;DHT22;40315;48.620;9.828;2023-10-31T07:57:36;9.80;99.90
54409;DHT22;40315;48.620;9.828;2023-10-31T08:00:08;9.80;99.90
54409;DHT22;40315;48.620;9.828;2023-10-31T08:02:38;9.80;99.90
54409;DHT22;40315;48.620;9.828;2023-10-31T08:05:07;9.80;99.90
54409;DHT22;40315;48.620;9.828;2023-10-31T08:10:05;9.90;99.90
54409;DHT22;40315;48.620;9.828;2023-10-31T08:12:32;9.90;99.90
54409;DHT22;40315;48.620;9.828;2023-10-31T08:14:59;10.00;99.90
54409;DHT22;40315;48.620;9.828;2023-10-31T08:17:26;10.00;99.90
54409;DHT22;40315;48.620;9.828;2023-10-31T08:19:53;10.00;99.90
54409;DHT22;40315;48.620;9.828;2023-10-31T08:27:16;10.20;99.90
54409;DHT22;40315;48.620;9.828;2023-10-31T08:29:43;10.10;99.90
54409;DHT22;40315;48.620;9.828;2023-10-31T08:37:04;10.30;99.90
54409;DHT22;40315;48.620;9.828;2023-10-31T08:42:00;10.40;99.90
54409;DHT22;40315;48.620;9.828;2023-10-31T08:44:29;10.40;99.90
54409;DHT22;40315;48.620;9.828;2023-10-31T08:46:56;10.50;99.90
54409;DHT22;40315;48.620;9.828;2023-10-31T08:49:23;10.50;99.90
54409;DHT22;40315;48.620;9.828;2023-10-31T08:51:50;10.60;99.90
54409;DHT22;40315;48.620;9.828;2023-10-31T08:54:17;10.60;99.90
54409;DHT22;40315;48.620;9.828;2023-10-31T09:04:07;10.80;99.90
54409;DHT22;40315;48.620;9.828;2023-10-31T09:09:02;10.90;99.90
54409;DHT22;40315;48.620;9.828;2023-10-31T09:13:57;11.80;99.90
54409;DHT22;40315;48.620;9.828;2023-10-31T09:16:25;11.00;99.90
54409;DHT22;40315;48.620;9.828;2023-10-31T09:18:52;10.90;99.90
54409;DHT22;40315;48.620;9.828;2023-10-31T09:21:19;10.90;99.90
54409;DHT22;40315;48.620;9.828;2023-10-31T09:26:15;11.00;99.90
54409;DHT22;40315;48.620;9.828;2023-10-31T09:31:18;11.10;99.90
54409;DHT22;40315;48.620;9.828;2023-10-31T09:33:46;11.10;99.90
54409;DHT22;40315;48.620;9.828;2023-10-31T09:36:13;11.10;99.90
54409;DHT22;40315;48.620;9.828;2023-10-31T09:38:41;11.00;99.90
54409;DHT22;40315;48.620;9.828;2023-10-31T09:41:08;11.10;99.90
54409;DHT22;40315;48.620;9.828;2023-10-31T09:43:35;11.10;99.90
54409;DHT22;40315;48.620;9.828;2023-10-31T09:46:02;11.10;99.90
54409;DHT22;40315;48.620;9.828;2023-10-31T09:50:59;11.20;99.90
54409;DHT22;40315;48.620;9.828;2023-10-31T09:53:27;11.20;99.90
54409;DHT22;40315;48.620;9.828;2023-10-31T09:58:23;11.20;99.90
54409;DHT22;40315;48.620;9.828;2023-10-31T10:00:49;11.30;99.90
54409;DHT22;40315;48.620;9.828;2023-10-31T10:05:44;12.70;99.90
54409;DHT22;40315;48.620;9.828;2023-10-31T10:08:14;11.50;99.90
54409;DHT22;40315;48.620;9.828;2023-10-31T10:13:09;11.50;99.90
54409;DHT22;40315;48.620;9.828;2023-10-31T10:15:44;11.50;99.90
54409;DHT22;40315;48.620;9.828;2023-10-31T10:18:25;11.60;99.90
54409;DHT22;40315;48.620;9.828;2023-10-31T10:25:53;11.70;99.90
54409;DHT22;40315;48.620;9.828;2023-10-31T10:30:47;11.60;99.90
54409;DHT22;40315;48.620;9.828;2023-10-31T10:33:15;11.70;99.90
54409;DHT22;40315;48.620;9.828;2023-10-31T10:35:42;10.60;99.90
54409;DHT22;40315;48.620;9.828;2023-10-31T10:38:11;11.80;99.90
54409;DHT22;40315;48.620;9.828;2023-10-31T10:40:43;11.90;99.90
54409;DHT22;40315;48.620;9.828;2023-10-31T10:43:12;12.00;99.90
54409;DHT22;40315;48.620;9.828;2023-10-31T10:45:42;12.00;99.90
54409;DHT22;40315;48.620;9.828;2023-10-31T10:48:12;12.00;99.90
54409;DHT22;40315;48.620;9.828;2023-10-31T10:50:42;12.30;99.90
54409;DHT22;40315;48.620;9.828;2023-10-31T10:53:21;12.30;99.90
54409;DHT22;40315;48.620;9.828;2023-10-31T10:55:55;12.30;99.90
54409;DHT22;40315;48.620;9.828;2023-10-31T10:58:27;12.30;99.90
54409;DHT22;40315;48.620;9.828;2023-10-31T11:01:00;12.30;99.90
54409;DHT22;40315;48.620;9.828;2023-10-31T11:03:29;12.40;99.90
54409;DHT22;40315;48.620;9.828;2023-10-31T11:08:24;12.20;99.90
54409;DHT22;40315;48.620;9.828;2023-10-31T11:13:22;12.20;99.90
54409;DHT22;40315;48.620;9.828;2023-10-31T11:15:57;12.20;99.90
54409;DHT22;40315;48.620;9.828;2023-10-31T11:20:56;12.20;99.90
54409;DHT22;40315;48.620;9.828;2023-10-31T11:23:23;12.20;99.90
54409;DHT22;40315;48.620;9.828;2023-10-31T11:25:50;12.20;99.90
54409;DHT22;40315;48.620;9.828;2023-10-31T11:28:22;12.10;99.90
54409;DHT22;40315;48.620;9.828;2023-10-31T11:30:50;12.00;99.90
54409;DHT22;40315;48.620;9.828;2023-10-31T11:33:24;13.20;99.90
54409;DHT22;40315;48.620;9.828;2023-10-31T11:36:00;12.10;99.90
54409;DHT22;40315;48.620;9.828;2023-10-31T11:38:36;12.10;99.90
54409;DHT22;40315;48.620;9.828;2023-10-31T11:41:05;11.80;99.90
54409;DHT22;40315;48.620;9.828;2023-10-31T11:46:19;11.70;99.90
54409;DHT22;40315;48.620;9.828;2023-10-31T11:48:48;12.30;99.90
54409;DHT22;40315;48.620;9.828;2023-10-31T11:51:15;11.40;99.90
54409;DHT22;40315;48.620;9.828;2023-10-31T11:53:43;11.40;99.90
54409;DHT22;40315;48.620;9.828;2023-10-31T11:56:18;11.30;99.90
54409;DHT22;40315;48.620;9.828;2023-10-31T11:58:56;11.40;99.90
54409;DHT22;40315;48.620;9.828;2023-10-31T12:01:23;11.30;99.90
54409;DHT22;40315;48.620;9.828;2023-10-31T12:06:18;11.30;99.90
54409;DHT22;40315;48.620;9.828;2023-10-31T12:08:49;11.30;99.90
54409;DHT22;40315;48.620;9.828;2023-10-31T12:11:18;11.30;99.90
54409;DHT22;40315;48.620;9.828;2023-10-31T12:13:54;11.30;99.90
54409;DHT22;40315;48.620;9.828;2023-10-31T12:16:26;11.10;99.90
54409;DHT22;40315;48.620;9.828;2023-10-31T12:18:56;11.00;99.90
54409;DHT22;40315;48.620;9.828;2023-10-31T12:21:37;10.90;99.90
54409;DHT22;40315;48.620;9.828;2023-10-31T12:24:05;10.90;99.90
54409;DHT22;40315;48.620;9.828;2023-10-31T12:26:33;10.90;99.90
54409;DHT22;40315;48.620;9.828;2023-10-31T12:29:11;11.00;99.90
54409;DHT22;40315;48.620;9.828;2023-10-31T12:34:14;11.20;99.90
54409;DHT22;40315;48.620;9.828;2023-10-31T12:36:42;11.20;99.90
54409;DHT22;40315;48.620;9.828;2023-10-31T12:39:10;11.30;99.90
54409;DHT22;40315;48.620;9.828;2023-10-31T12:41:39;11.60;99.90
54409;DHT22;40315;48.620;9.828;2023-10-31T12:46:38;11.80;99.90
54409;DHT22;40315;48.620;9.828;2023-10-31T12:49:10;12.30;99.90
54409;DHT22;40315;48.620;9.828;2023-10-31T12:51:37;11.70;99.90
54409;DHT22;40315;48.620;9.828;2023-10-31T12:56:40;11.90;99.90
54409;DHT22;40315;48.620;9.828;2023-10-31T12:59:08;11.90;99.90
54409;DHT22;40315;48.620;9.828;2023-10-31T13:06:33;12.20;99.90
54409;DHT22;40315;48.620;9.828;2023-10-31T13:09:01;12.20;99.90
54409;DHT22;40315;48.620;9.828;2023-10-31T13:11:32;12.30;99.90
54409;DHT22;40315;48.620;9.828;2023-10-31T13:13:59;12.00;99.90
54409;DHT22;40315;48.620;9.828;2023-10-31T13:16:27;12.40;99.90
54409;DHT22;40315;48.620;9.828;2023-10-31T13:18:56;12.40;99.90
54409;DHT22;40315;48.620;9.828;2023-10-31T13:23:54;12.50;99.90
54409;DHT22;40315;48.620;9.828;2023-10-31T13:26:21;12.40;99.90
54409;DHT22;40315;48.620;9.828;2023-10-31T13:28:48;12.50;99.90
54409;DHT22;40315;48.620;9.828;2023-10-31T13:31:15;12.60;99.90
54409;DHT22;40315;48.620;9.828;2023-10-31T13:33:43;12.60;99.90
54409;DHT22;40315;48.620;9.828;2023-10-31T13:36:10;10.60;99.90
54409;DHT22;40315;48.620;9.828;2023-10-31T13:43:33;12.00;99.90
54409;DHT22;40315;48.620;9.828;2023-10-31T13:46:00;12.00;99.90
54409;DHT22;40315;48.620;9.828;2023-10-31T13:48:28;11.80;99.90
54409;DHT22;40315;48.620;9.828;2023-10-31T13:50:55;11.70;99.90
54409;DHT22;40315;48.620;9.828;2023-10-31T13:53:22;11.70;99.90
54409;DHT22;40315;48.620;9.828;2023-10-31T13:55:50;11.30;99.90
54409;DHT22;40315;48.620;9.828;2023-10-31T14:03:13;11.40;99.90
54409;DHT22;40315;48.620;9.828;2023-10-31T14:05:41;11.30;99.90
54409;DHT22;40315;48.620;9.828;2023-10-31T14:08:08;11.40;99.90
54409;DHT22;40315;48.620;9.828;2023-10-31T14:10:36;11.50;99.90
54409;DHT22;40315;48.620;9.828;2023-10-31T14:13:04;11.40;99.90
54409;DHT22;40315;48.620;9.828;2023-10-31T14:17:59;11.50;99.90
54409;DHT22;40315;48.620;9.828;2023-10-31T14:20:26;11.50;99.90
54409;DHT22;40315;48.620;9.828;2023-10-31T14:22:52;11.60;99.90
54409;DHT22;40315;48.620;9.828;2023-10-31T14:25:22;11.80;99.90
54409;DHT22;40315;48.620;9.828;2023-10-31T14:27:48;12.00;99.90
54409;DHT22;40315;48.620;9.828;2023-10-31T14:30:17;11.40;99.90
54409;DHT22;40315;48.620;9.828;2023-10-31T14:35:11;11.50;99.90
54409;DHT22;40315;48.620;9.828;2023-10-31T14:40:07;11.30;99.90
54409;DHT22;40315;48.620;9.828;2023-10-31T14:42:34;11.30;99.90
54409;DHT22;40315;48.620;9.828;2023-10-31T14:45:01;11.20;99.90
54409;DHT22;40315;48.620;9.828;2023-10-31T14:49:56;11.10;99.90
54409;DHT22;40315;48.620;9.828;2023-10-31T14:52:23;11.10;99.90
54409;DHT22;40315;48.620;9.828;2023-10-31T14:57:17;11.30;99.90
54409;DHT22;40315;48.620;9.828;2023-10-31T14:59:45;14.20;99.90
54409;DHT22;40315;48.620;9.828;2023-10-31T15:02:12;11.50;99.90
54409;DHT22;40315;48.620;9.828;2023-10-31T15:09:37;11.90;99.90
54409;DHT22;40315;48.620;9.828;2023-10-31T15:12:05;11.90;99.90
54409;DHT22;40315;48.620;9.828;2023-10-31T15:14:32;11.90;99.90
54409;DHT22;40315;48.620;9.828;2023-10-31T15:16:59;11.80;99.90
54409;DHT22;40315;48.620;9.828;2023-10-31T15:19:25;11.80;99.90
54409;DHT22;40315;48.620;9.828;2023-10-31T15:24:21;11.90;99.90
54409;DHT22;40315;48.620;9.828;2023-10-31T15:26:48;11.90;99.90
54409;DHT22;40315;48.620;9.828;2023-10-31T15:31:45;11.90;99.90
54409;DHT22;40315;48.620;9.828;2023-10-31T15:36:40;11.70;99.90
54409;DHT22;40315;48.620;9.828;2023-10-31T15:41:36;11.60;99.90
54409;DHT22;40315;48.620;9.828;2023-10-31T15:46:31;11.60;99.90
54409;DHT22;40315;48.620;9.828;2023-10-31T15:49:00;11.50;99.90
54409;DHT22;40315;48.620;9.828;2023-10-31T15:51:27;11.50;99.90
54409;DHT22;40315;48.620;9.828;2023-10-31T15:53:55;11.40;99.90
54409;DHT22;40315;48.620;9.828;2023-10-31T15:58:49;11.40;99.90
54409;DHT22;40315;48.620;9.828;2023-10-31T16:01:16;11.40;99.90
54409;DHT22;40315;48.620;9.828;2023-10-31T16:03:45;11.30;99.90
54409;DHT22;40315;48.620;9.828;2023-10-31T16:11:07;11.20;99.90
54409;DHT22;40315;48.620;9.828;2023-10-31T16:16:07;11.10;99.90
54409;DHT22;40315;48.620;9.828;2023-10-31T16:18:36;11.20;99.90
54409;DHT22;40315;48.620;9.828;2023-10-31T16:21:04;11.20;99.90
54409;DHT22;40315;48.620;9.828;2023-10-31T16:23:32;11.10;99.90
54409;DHT22;40315;48.620;9.828;2023-10-31T16:25:59;11.00;99.90
54409;DHT22;40315;48.620;9.828;2023-10-31T16:28:26;11.10;99.90
54409;DHT22;40315;48.620;9.828;2023-10-31T16:33:26;11.10;99.90
54409;DHT22;40315;48.620;9.828;2023-10-31T16:35:53;11.00;99.90
54409;DHT22;40315;48.620;9.828;2023-10-31T16:40:49;10.80;99.90
54409;DHT22;40315;48.620;9.828;2023-10-31T16:43:16;10.90;99.90
54409;DHT22;40315;48.620;9.828;2023-10-31T16:50:42;11.10;99.90
54409;DHT22;40315;48.620;9.828;2023-10-31T16:53:09;11.10;99.90
54409;DHT22;40315;48.620;9.828;2023-10-31T16:58:03;11.00;99.90
54409;DHT22;40315;48.620;9.828;2023-10-31T17:00:35;10.90;99.90
54409;DHT22;40315;48.620;9.828;2023-10-31T17:03:02;12.50;99.90
54409;DHT22;40315;48.620;9.828;2023-10-31T17:07:58;11.00;99.90
54409;DHT22;40315;48.620;9.828;2023-10-31T17:12:52;10.70;99.90
54409;DHT22;40315;48.620;9.828;2023-10-31T17:15:19;10.60;99.90
54409;DHT22;40315;48.620;9.828;2023-10-31T17:17:46;10.60;99.90
54409;DHT22;40315;48.620;9.828;2023-10-31T17:20:12;10.70;99.90
54409;DHT22;40315;48.620;9.828;2023-10-31T17:25:08;10.90;99.90
54409;DHT22;40315;48.620;9.828;2023-10-31T17:27:35;10.80;99.90
54409;DHT22;40315;48.620;9.828;2023-10-31T17:30:03;10.70;99.90
54409;DHT22;40315;48.620;9.828;2023-10-31T17:32:31;10.70;99.90
54409;DHT22;40315;48.620;9.828;2023-10-31T17:37:25;10.70;99.90
54409;DHT22;40315;48.620;9.828;2023-10-31T17:42:20;10.70;99.90
54409;DHT22;40315;48.620;9.828;2023-10-31T17:47:15;10.60;99.90
54409;DHT22;40315;48.620;9.828;2023-10-31T17:49:42;10.60;99.90
54409;DHT22;40315;48.620;9.828;2023-10-31T17:52:14;10.50;99.90
54409;DHT22;40315;48.620;9.828;2023-10-31T17:54:41;10.40;99.90
54409;DHT22;40315;48.620;9.828;2023-10-31T17:59:43;10.30;99.90
54409;DHT22;40315;48.620;9.828;2023-10-31T18:02:10;10.20;99.90
54409;DHT22;40315;48.620;9.828;2023-10-31T18:04:37;10.20;99.90
54409;DHT22;40315;48.620;9.828;2023-10-31T18:11:59;10.10;99.90
54409;DHT22;40315;48.620;9.828;2023-10-31T18:16:54;10.20;99.90
54409;DHT22;40315;48.620;9.828;2023-10-31T18:19:21;10.20;99.90
54409;DHT22;40315;48.620;9.828;2023-10-31T18:21:48;10.10;99.90
54409;DHT22;40315;48.620;9.828;2023-10-31T18:26:43;10.30;99.90
54409;DHT22;40315;48.620;9.828;2023-10-31T18:34:05;10.20;99.90
54409;DHT22;40315;48.620;9.828;2023-10-31T18:36:32;10.10;99.90
54409;DHT22;40315;48.620;9.828;2023-10-31T18:41:31;10.20;99.90
54409;DHT22;40315;48.620;9.828;2023-10-31T18:43:59;10.20;99.90
54409;DHT22;40315;48.620;9.828;2023-10-31T18:48:55;10.20;99.90
54409;DHT22;40315;48.620;9.828;2023-10-31T18:51:22;10.20;99.90
54409;DHT22;40315;48.620;9.828;2023-10-31T18:53:49;10.20;99.90
54409;DHT22;40315;48.620;9.828;2023-10-31T18:58:43;10.20;99.90
54409;DHT22;40315;48.620;9.828;2023-10-31T19:08:34;10.20;99.90
54409;DHT22;40315;48.620;9.828;2023-10-31T19:11:01;10.20;99.90
54409;DHT22;40315;48.620;9.828;2023-10-31T19:13:28;10.80;99.90
54409;DHT22;40315;48.620;9.828;2023-10-31T19:15:55;10.20;99.90
54409;DHT22;40315;48.620;9.828;2023-10-31T19:25:45;10.20;99.90
54409;DHT22;40315;48.620;9.828;2023-10-31T19:28:14;10.20;99.90
54409;DHT22;40315;48.620;9.828;2023-10-31T19:30:41;10.20;99.90
54409;DHT22;40315;48.620;9.828;2023-10-31T19:33:08;10.20;99.90
54409;DHT22;40315;48.620;9.828;2023-10-31T19:35:35;10.20;99.90
54409;DHT22;40315;48.620;9.828;2023-10-31T19:38:02;10.30;99.90
54409;DHT22;40315;48.620;9.828;2023-10-31T19:42:59;10.40;99.90
54409;DHT22;40315;48.620;9.828;2023-10-31T19:45:28;10.30;99.90
54409;DHT22;40315;48.620;9.828;2023-10-31T19:47:57;10.30;99.90
54409;DHT22;40315;48.620;9.828;2023-10-31T19:50:24;10.30;99.90
54409;DHT22;40315;48.620;9.828;2023-10-31T19:52:51;10.40;99.90
54409;DHT22;40315;48.620;9.828;2023-10-31T19:55:18;10.40;99.90
54409;DHT22;40315;48.620;9.828;2023-10-31T20:00:19;10.30;99.90
54409;DHT22;40315;48.620;9.828;2023-10-31T20:05:17;10.20;99.90
54409;DHT22;40315;48.620;9.828;2023-10-31T20:10:12;10.40;99.90
54409;DHT22;40315;48.620;9.828;2023-10-31T20:12:39;10.30;99.90
54409;DHT22;40315;48.620;9.828;2023-10-31T20:17:35;10.40;99.90
54409;DHT22;40315;48.620;9.828;2023-10-31T20:20:03;10.70;99.90
54409;DHT22;40315;48.620;9.828;2023-10-31T20:22:32;10.40;99.90
54409;DHT22;40315;48.620;9.828;2023-10-31T20:24:59;10.30;99.90
54409;DHT22;40315;48.620;9.828;2023-10-31T20:27:26;10.40;99.90
54409;DHT22;40315;48.620;9.828;2023-10-31T20:29:53;10.40;99.90
54409;DHT22;40315;48.620;9.828;2023-10-31T20:32:22;10.40;99.90
54409;DHT22;40315;48.620;9.828;2023-10-31T20:34:49;10.30;99.90
54409;DHT22;40315;48.620;9.828;2023-10-31T20:37:16;10.20;99.90
54409;DHT22;40315;48.620;9.828;2023-10-31T20:39:43;10.20;99.90
54409;DHT22;40315;48.620;9.828;2023-10-31T20:42:10;10.20;99.90
54409;DHT22;40315;48.620;9.828;2023-10-31T20:44:38;10.20;99.90
54409;DHT22;40315;48.620;9.828;2023-10-31T20:47:05;10.10;99.90
54409;DHT22;40315;48.620;9.828;2023-10-31T20:52:01;10.20;99.90
54409;DHT22;40315;48.620;9.828;2023-10-31T20:54:28;10.10;99.90
54409;DHT22;40315;48.620;9.828;2023-10-31T20:56:55;10.10;99.90
54409;DHT22;40315;48.620;9.828;2023-10-31T20:59:24;10.10;99.90
54409;DHT22;40315;48.620;9.828;2023-10-31T21:01:51;10.10;99.90
54409;DHT22;40315;48.620;9.828;2023-10-31T21:04:18;10.10;99.90
54409;DHT22;40315;48.620;9.828;2023-10-31T21:09:17;10.20;99.90
54409;DHT22;40315;48.620;9.828;2023-10-31T21:11:44;10.10;99.90
54409;DHT22;40315;48.620;9.828;2023-10-31T21:14:13;10.10;99.90
54409;DHT22;40315;48.620;9.828;2023-10-31T21:16:40;10.00;99.90
54409;DHT22;40315;48.620;9.828;2023-10-31T21:19:06;10.00;99.90
54409;DHT22;40315;48.620;9.828;2023-10-31T21:21:33;9.90;99.90
54409;DHT22;40315;48.620;9.828;2023-10-31T21:26:31;10.00;99.90
54409;DHT22;40315;48.620;9.828;2023-10-31T21:28:58;9.90;99.90
54409;DHT22;40315;48.620;9.828;2023-10-31T21:31:25;10.10;99.90
54409;DHT22;40315;48.620;9.828;2023-10-31T21:36:19;9.80;99.90
54409;DHT22;40315;48.620;9.828;2023-10-31T21:43:47;9.50;99.90
54409;DHT22;40315;48.620;9.828;2023-10-31T21:46:14;9.90;99.90
54409;DHT22;40315;48.620;9.828;2023-10-31T21:48:42;9.40;99.90